createdAt,value
2022-12-05T00:00:53.763Z,-1.20
2022-12-05T00:10:59.759Z,-1.21
2022-12-05T00:21:06.385Z,-1.21
2022-12-05T00:31:16.259Z,-1.23
2022-12-05T00:41:24.354Z,-1.23
2022-12-05T00:51:32.259Z,-1.24
2022-12-05T01:01:40.322Z,-1.25
2022-12-05T01:11:46.523Z,-1.29
2022-12-05T01:21:53.000Z,-1.31
2022-12-05T01:31:58.890Z,-1.29
2022-12-05T01:42:07.280Z,-1.30
2022-12-05T01:52:17.019Z,-1.31
2022-12-05T02:02:22.990Z,-1.32
2022-12-05T02:12:28.955Z,-1.32
2022-12-05T02:23:10.051Z,-1.32
2022-12-05T02:33:24.632Z,-1.32
2022-12-05T02:43:38.235Z,-1.32
2022-12-05T02:53:47.933Z,-1.33
2022-12-05T03:03:54.245Z,-1.34
2022-12-05T03:14:04.208Z,-1.36
2022-12-05T03:24:13.546Z,-1.38
2022-12-05T03:34:27.271Z,-1.37
2022-12-05T03:44:43.543Z,-1.37
2022-12-05T03:54:54.401Z,-1.36
2022-12-05T04:05:05.488Z,-1.34
2022-12-05T04:15:16.039Z,-1.35
2022-12-05T04:25:59.808Z,-1.36
2022-12-05T04:36:13.108Z,-1.35
2022-12-05T04:46:22.267Z,-1.32
2022-12-05T04:56:34.659Z,-1.29
2022-12-05T05:06:42.220Z,-1.28
2022-12-05T05:16:48.549Z,-1.31
2022-12-05T05:26:57.420Z,-1.30
2022-12-05T05:37:03.495Z,-1.28
2022-12-05T05:47:09.327Z,-1.28
2022-12-05T05:57:20.103Z,-1.28
2022-12-05T06:07:26.530Z,-1.27
2022-12-05T06:17:32.659Z,-1.26
2022-12-05T06:27:38.852Z,-1.28
2022-12-05T06:37:45.244Z,-1.28
2022-12-05T06:47:51.528Z,-1.28
2022-12-05T06:57:58.126Z,-1.28
2022-12-05T07:08:04.235Z,-1.25
2022-12-05T07:18:10.214Z,-1.24
2022-12-05T07:28:16.012Z,-1.20
2022-12-05T07:38:22.156Z,-1.17
2022-12-05T07:48:27.831Z,-1.13
2022-12-05T07:58:35.285Z,-1.07
2022-12-05T08:08:41.113Z,-1.00
2022-12-05T08:18:48.730Z,-0.93
2022-12-05T08:28:56.077Z,-0.86
2022-12-05T08:39:08.358Z,-0.73
2022-12-05T08:49:14.803Z,-0.62
2022-12-05T08:59:23.814Z,-0.50
2022-12-05T09:09:30.308Z,-0.42
2022-12-05T09:19:39.871Z,-0.30
2022-12-05T09:29:46.166Z,-0.23
2022-12-05T09:39:52.273Z,-0.15
2022-12-05T09:50:03.977Z,-0.07
2022-12-05T10:00:13.690Z,-0.03
2022-12-05T10:10:34.657Z,0.05
2022-12-05T10:20:48.773Z,0.08
2022-12-05T10:31:01.603Z,0.05
2022-12-05T10:41:09.683Z,0.18
2022-12-05T10:51:19.365Z,0.30
2022-12-05T11:01:26.951Z,0.35
2022-12-05T11:11:35.650Z,0.32
2022-12-05T11:21:46.218Z,0.30
2022-12-05T11:31:54.824Z,0.28
2022-12-05T11:42:35.475Z,0.39
2022-12-05T11:52:56.397Z,0.48
2022-12-05T12:03:46.033Z,0.54
2022-12-05T12:14:07.495Z,0.58
2022-12-05T12:24:26.394Z,0.52
2022-12-05T12:34:59.709Z,0.48
2022-12-05T12:45:42.150Z,0.46
2022-12-05T12:56:04.196Z,0.47
2022-12-05T13:06:25.696Z,0.48
2022-12-05T13:16:45.617Z,0.52
2022-12-05T13:26:52.402Z,0.50
2022-12-05T13:37:37.672Z,0.48
2022-12-05T13:47:56.964Z,0.46
2022-12-05T13:58:45.836Z,0.48
2022-12-05T14:08:56.631Z,0.47
2022-12-05T14:19:14.963Z,0.49
2022-12-05T14:29:38.642Z,0.50
2022-12-05T14:40:00.653Z,0.50
2022-12-05T14:50:38.559Z,0.50
2022-12-05T15:00:48.094Z,0.51
2022-12-05T15:11:28.326Z,0.52
2022-12-05T15:21:40.011Z,0.52
2022-12-05T15:32:15.803Z,0.56
2022-12-05T15:42:43.061Z,0.60
2022-12-05T15:53:04.000Z,0.66
2022-12-05T16:03:38.717Z,0.69
2022-12-05T16:13:46.513Z,0.72
2022-12-05T16:24:21.535Z,0.74
2022-12-05T16:34:47.732Z,0.75
2022-12-05T16:45:03.550Z,0.76
2022-12-05T16:55:15.272Z,0.79
2022-12-05T17:05:22.424Z,0.80
2022-12-05T17:15:48.564Z,0.82
2022-12-05T17:25:58.162Z,0.85
2022-12-05T17:36:23.768Z,0.88
2022-12-05T17:46:49.369Z,0.89
2022-12-05T17:57:14.949Z,0.93
2022-12-05T18:07:27.745Z,0.99
2022-12-05T18:17:53.237Z,1.04
2022-12-05T18:28:19.680Z,1.09
2022-12-05T18:38:52.419Z,1.12
2022-12-05T18:49:05.334Z,1.15
2022-12-05T18:59:30.857Z,1.21
2022-12-05T19:09:56.551Z,1.24
2022-12-05T19:20:22.093Z,1.25
2022-12-05T19:30:47.526Z,1.27
2022-12-05T19:41:10.860Z,1.31
2022-12-05T19:51:22.137Z,1.35
2022-12-05T20:01:47.745Z,1.40
2022-12-05T20:12:13.346Z,1.44
2022-12-05T20:22:39.158Z,1.45
2022-12-05T20:33:04.717Z,1.46
2022-12-05T20:43:30.820Z,1.44
2022-12-05T20:53:56.771Z,1.45
2022-12-05T21:04:22.335Z,1.48
2022-12-05T21:14:48.158Z,1.51
2022-12-05T21:25:13.827Z,1.55
2022-12-05T21:35:39.385Z,1.53
2022-12-05T21:46:06.047Z,1.53
2022-12-05T21:56:31.649Z,1.60
2022-12-05T22:06:57.201Z,1.62
2022-12-05T22:17:22.728Z,1.64
2022-12-05T22:27:48.393Z,1.71
2022-12-05T22:38:13.953Z,1.77
2022-12-05T22:48:39.809Z,1.75
2022-12-05T22:59:06.627Z,1.69
2022-12-05T23:09:34.854Z,1.66
2022-12-05T23:20:00.772Z,1.65
2022-12-05T23:30:26.458Z,1.69
2022-12-05T23:41:02.398Z,1.78
2022-12-05T23:51:30.078Z,1.87
